Archival Weather

Half Moon Bay

Half Moon Bay, California (KHAF)

Report from: Tuesday, September 19, 2023 11:15 PM PDT
Current time: Tuesday, July 16, 2024 1:34 AM PDT

Current weather – Weather history – Daily summaries
Weather forecast

Present weatherMist
Temperature15.0°C (59.0°F)
Dew point14.0°C (57.2°F)
Winds 3 kts (1.5 m/s, 3.5 mph) South-Southwest (200°)
Visibility2.5 mi. (4 km)
Clouds Ceiling: Overcast 700 ft. (213 m)
Altimeter29.92 in.Hg (1013 mB)
Relative humidity94 %
Density altitude223 ft. (68 m)
Remarks Fully automated report
Automated weather observing station with precipitation discriminator
Flight conditions Instrument Meteorological Conditions
Raw dataKHAF 200615Z AUTO 20003KT 2 1/2SM BR OVC007 15/14 A2992 RMK AO2
An error has occurred. This application may no longer respond until reloaded. Reload 🗙